Terminal Aerodrome Forecast
Issued by NWS Binghamton, NY

Home | Current Version | Previous Version | Text Only | Print | Product List | Glossary On
Versions: 1 2 3 4 5 6 7 8 9 10 11 12 13 14 15 16 17 18 19 20
000
FTUS41 KBGM 272335
TAFSYR
TAF
KSYR 272335Z 2800/2824 21008KT P6SM SCT050 BKN100
      TEMPO 2808/2811 -SHRA BKN050
     FM281300 28012KT P6SM BKN050
     FM282000 31010KT P6SM SCT050=

USA.gov is the U.S. government's official web portal to all federal, state and local government web resources and services.